< < Back
Terminal Aerodrome Forecast


Current Version              Previous Versions:   1  2  3  4  5  6  7  8  9  

Terminal Aerodrome Forecast

550
FTUS42 KGSP 240300 AAA
TAFCLT
TAF AMD
KCLT 240312Z 2403/2424 03008KT P6SM SKC
     FM240700 05005KT P6SM SKC
     FM241700 14005KT P6SM FEW250
     FM242100 20005KT P6SM FEW250=



Latest METAR

401
SAUS70 KWBC 241400 RRA
MTRCLT
METAR KCLT 241352Z VRB05KT 10SM FEW250 15/01 A3015 RMK AO2 SLP205
T01500006


USA.gov is the U.S. government's official web portal to all federal, state and local government web resources and services.